^^
Station Historical Data
Daily Summary for January 7, 2018 Units:  English    Metric   Both
« Previous Day
Next Day »
Daily Weekly Monthly Yearly Custom
  High: Low: Average:
Temperature: TemperatureF °F 41.0 °F 50.9 °F
Dew Point: DewpointF °F 33.7 °F 39.7 °F
Humidity: Humidity% 44% 66%
Wind Speed: WindSpeedMPHmph 0.0mph 0mph
Wind Gust: WindSpeedGustMPHmph - -
Wind- - North
Pressure: PressureIn in 30.33 in -
Precipitation: 0.00 in    
Historical Graphs
 
 
Tabular Data for January 7, 2018
Time Temperature Dew Point Pressure Wind Wind Speed Wind Gust Humidity Rainfall Rate (Hourly) solar Conditions
TemperatureF °F DewpointF °F PressureIn in Calm     Humidity% HourlyPrecipIn in SolarRadiationWatts/m^2 W/m2 Conditions
00:00 43.0 °F 33.9 °F 30.46 in Calm     70% 0.00 in 0.0 W/m2 CLR
00:25 41.0 °F 33.7 °F 30.44 in Calm     75% 0.00 in 0.0 W/m2 CLR
00:30 41.0 °F 33.7 °F 30.44 in Calm     75% 0.00 in 0.0 W/m2 CLR
00:45 41.0 °F 33.7 °F 30.44 in Calm     75% 0.00 in 0.0 W/m2 CLR
00:55 41.0 °F 33.7 °F 30.44 in Calm     75% 0.00 in 0.0 W/m2 CLR
01:00 41.0 °F 33.7 °F 30.44 in Calm     75% 0.00 in 0.0 W/m2 CLR
01:10 41.0 °F 33.7 °F 30.43 in Calm     75% 0.00 in 0.0 W/m2 CLR
01:15 41.0 °F 33.7 °F 30.43 in Calm     75% 0.00 in 0.0 W/m2 CLR
01:20 41.0 °F 33.7 °F 30.43 in Calm     75% 0.00 in 0.0 W/m2 CLR
01:25 41.0 °F 33.7 °F 30.43 in Calm     75% 0.00 in 0.0 W/m2 CLR
01:30 41.0 °F 33.7 °F 30.43 in Calm     75% 0.00 in 0.0 W/m2 CLR
01:55 41.0 °F 33.7 °F 30.43 in Calm     75% 0.00 in 0.0 W/m2 CLR
02:05 41.0 °F 33.7 °F 30.41 in Calm     75% 0.00 in 0.0 W/m2 CLR
02:15 41.0 °F 33.7 °F 30.41 in Calm     75% 0.00 in 0.0 W/m2 CLR
02:25 41.0 °F 33.7 °F 30.41 in Calm     75% 0.00 in 0.0 W/m2 CLR
02:30 41.0 °F 33.7 °F 30.41 in Calm     75% 0.00 in 0.0 W/m2 CLR
02:40 41.0 °F 33.7 °F 30.41 in Calm     75% 0.00 in 0.0 W/m2 CLR
02:45 41.0 °F 33.7 °F 30.41 in Calm     75% 0.00 in 0.0 W/m2 CLR
02:55 41.0 °F 33.7 °F 30.41 in Calm     75% 0.00 in 0.0 W/m2 CLR
03:05 42.1 °F 33.7 °F 30.40 in Calm     72% 0.00 in 0.0 W/m2 CLR
03:10 42.1 °F 33.7 °F 30.40 in Calm     72% 0.00 in 0.0 W/m2 CLR
03:20 42.1 °F 33.7 °F 30.40 in Calm     72% 0.00 in 0.0 W/m2 CLR
03:25 42.1 °F 33.7 °F 30.40 in Calm     72% 0.00 in 0.0 W/m2 CLR
03:40 42.1 °F 33.7 °F 30.40 in Calm     72% 0.00 in 0.0 W/m2 CLR
03:50 42.1 °F 33.7 °F 30.40 in Calm     72% 0.00 in 0.0 W/m2 CLR
04:00 42.1 °F 33.7 °F 30.40 in Calm     72% 0.00 in 0.0 W/m2 CLR
04:20 42.1 °F 34.7 °F 30.39 in Calm     75% 0.00 in 0.0 W/m2 CLR
04:35 42.1 °F 34.7 °F 30.39 in Calm     75% 0.00 in 0.0 W/m2 CLR
04:40 42.1 °F 34.7 °F 30.39 in Calm     75% 0.00 in 0.0 W/m2 CLR
04:45 42.1 °F 34.7 °F 30.39 in Calm     75% 0.00 in 0.0 W/m2 CLR
04:55 42.1 °F 34.7 °F 30.39 in Calm     75% 0.00 in 0.0 W/m2 CLR
05:00 42.1 °F 34.7 °F 30.39 in Calm     75% 0.00 in 0.0 W/m2 CLR
05:10 42.1 °F 35.7 °F 30.38 in Calm     78% 0.00 in 0.0 W/m2 CLR
05:15 42.1 °F 35.7 °F 30.38 in Calm     78% 0.00 in 0.0 W/m2 CLR
05:25 42.1 °F 35.7 °F 30.38 in Calm     78% 0.00 in 0.0 W/m2 CLR
05:35 42.1 °F 35.7 °F 30.38 in Calm     78% 0.00 in 0.0 W/m2 CLR
05:40 42.1 °F 35.7 °F 30.38 in Calm     78% 0.00 in 0.0 W/m2 CLR
05:50 42.1 °F 35.7 °F 30.38 in Calm     78% 0.00 in 0.0 W/m2 CLR
06:05 42.1 °F 37.0 °F 30.39 in Calm     82% 0.00 in 0.0 W/m2 CLR
06:10 42.1 °F 37.0 °F 30.39 in Calm     82% 0.00 in 0.0 W/m2 CLR
06:25 42.1 °F 37.0 °F 30.39 in Calm     82% 0.00 in 0.0 W/m2 CLR
06:35 42.1 °F 37.0 °F 30.39 in Calm     82% 0.00 in 0.0 W/m2 CLR
06:40 42.1 °F 37.0 °F 30.39 in Calm     82% 0.00 in 0.0 W/m2 CLR
06:45 42.1 °F 37.0 °F 30.39 in Calm     82% 0.00 in 0.0 W/m2 CLR
06:55 42.1 °F 37.0 °F 30.39 in Calm     82% 0.00 in 0.0 W/m2 CLR
07:05 42.1 °F 37.9 °F 30.40 in Calm     85% 0.00 in 0.0 W/m2 CLR
07:10 42.1 °F 37.9 °F 30.40 in Calm     85% 0.00 in 0.0 W/m2 CLR
07:15 42.1 °F 37.9 °F 30.40 in Calm     85% 0.00 in 0.0 W/m2 CLR
07:25 42.1 °F 37.9 °F 30.40 in Calm     85% 0.00 in 0.0 W/m2 CLR
07:30 42.1 °F 37.9 °F 30.40 in Calm     85% 0.00 in 0.0 W/m2 CLR
07:55 42.1 °F 37.9 °F 30.40 in Calm     85% 0.00 in 0.0 W/m2 CLR
08:00 42.1 °F 37.9 °F 30.40 in Calm     85% 0.00 in 0.0 W/m2 CLR
08:10 43.0 °F 38.8 °F 30.42 in Calm     85% 0.00 in 0.0 W/m2 CLR
08:20 43.0 °F 38.8 °F 30.42 in Calm     85% 0.00 in 0.0 W/m2 CLR
08:30 43.0 °F 38.8 °F 30.42 in Calm     85% 0.00 in 0.0 W/m2 CLR
08:45 43.0 °F 38.8 °F 30.42 in Calm     85% 0.00 in 0.0 W/m2 CLR
09:05 48.9 °F 42.0 °F 30.42 in Calm     77% 0.00 in 0.0 W/m2 CLR
09:15 48.9 °F 42.0 °F 30.42 in Calm     77% 0.00 in 0.0 W/m2 CLR
09:25 48.9 °F 42.0 °F 30.42 in Calm     77% 0.00 in 0.0 W/m2 CLR
09:30 48.9 °F 42.0 °F 30.42 in Calm     77% 0.00 in 0.0 W/m2 CLR
09:40 48.9 °F 42.0 °F 30.42 in Calm     77% 0.00 in 0.0 W/m2 CLR
09:45 48.9 °F 42.0 °F 30.42 in Calm     77% 0.00 in 0.0 W/m2 CLR
09:50 48.9 °F 42.0 °F 30.42 in Calm     77% 0.00 in 0.0 W/m2 CLR
10:00 48.9 °F 42.0 °F 30.42 in Calm     77% 0.00 in 0.0 W/m2 CLR
10:10 55.0 °F 43.9 °F 30.43 in Calm     66% 0.00 in 0.0 W/m2 CLR
10:15 55.0 °F 43.9 °F 30.43 in Calm     66% 0.00 in 0.0 W/m2 CLR
10:25 55.0 °F 43.9 °F 30.43 in Calm     66% 0.00 in 0.0 W/m2 CLR
10:35 55.0 °F 43.9 °F 30.43 in Calm     66% 0.00 in 0.0 W/m2 CLR
10:45 55.0 °F 43.9 °F 30.43 in Calm     66% 0.00 in 0.0 W/m2 CLR
11:00 55.0 °F 43.9 °F 30.43 in Calm     66% 0.00 in 0.0 W/m2 CLR
11:15 61.0 °F 44.7 °F 30.42 in Calm     55% 0.00 in 0.0 W/m2 CLR
11:25 61.0 °F 44.7 °F 30.42 in Calm     55% 0.00 in 0.0 W/m2 CLR
11:30 61.0 °F 44.7 °F 30.42 in Calm     55% 0.00 in 0.0 W/m2 CLR
11:40 61.0 °F 44.7 °F 30.42 in Calm     55% 0.00 in 0.0 W/m2 CLR
11:55 61.0 °F 44.7 °F 30.42 in Calm     55% 0.00 in 0.0 W/m2 CLR
12:00 61.0 °F 44.7 °F 30.42 in Calm     55% 0.00 in 0.0 W/m2 CLR
12:25 64.0 °F 45.5 °F 30.40 in Calm     51% 0.00 in 0.0 W/m2 BKN
12:30 64.0 °F 45.5 °F 30.40 in Calm     51% 0.00 in 0.0 W/m2 BKN
12:40 64.0 °F 45.5 °F 30.40 in Calm     51% 0.00 in 0.0 W/m2 BKN
12:45 64.0 °F 45.5 °F 30.40 in Calm     51% 0.00 in 0.0 W/m2 BKN
12:55 64.0 °F 45.5 °F 30.40 in Calm     51% 0.00 in 0.0 W/m2 BKN
13:00 64.0 °F 45.5 °F 30.40 in Calm     51% 0.00 in 0.0 W/m2 BKN
13:10 64.9 °F 42.5 °F 30.36 in Calm     44% 0.00 in 0.0 W/m2 BKN
13:20 64.9 °F 42.5 °F 30.36 in Calm     44% 0.00 in 0.0 W/m2 BKN
13:35 64.9 °F 42.5 °F 30.36 in Calm     44% 0.00 in 0.0 W/m2 BKN
13:55 64.9 °F 42.5 °F 30.36 in Calm     44% 0.00 in 0.0 W/m2 BKN
14:05 64.0 °F 42.8 °F 30.34 in Calm     46% 0.00 in 0.0 W/m2 FEW
14:10 64.0 °F 42.8 °F 30.34 in Calm     46% 0.00 in 0.0 W/m2 FEW
14:15 64.0 °F 42.8 °F 30.34 in Calm     46% 0.00 in 0.0 W/m2 FEW
14:25 64.0 °F 42.8 °F 30.34 in Calm     46% 0.00 in 0.0 W/m2 FEW
14:35 64.0 °F 42.8 °F 30.34 in Calm     46% 0.00 in 0.0 W/m2 FEW
14:45 64.0 °F 42.8 °F 30.34 in Calm     46% 0.00 in 0.0 W/m2 FEW
15:10 64.9 °F 42.5 °F 30.33 in Calm     44% 0.00 in 0.0 W/m2 OVC
15:20 64.9 °F 42.5 °F 30.33 in Calm     44% 0.00 in 0.0 W/m2 OVC
15:25 64.9 °F 42.5 °F 30.33 in Calm     44% 0.00 in 0.0 W/m2 OVC
15:30 64.9 °F 42.5 °F 30.33 in Calm     44% 0.00 in 0.0 W/m2 OVC
15:40 64.9 °F 42.5 °F 30.33 in Calm     44% 0.00 in 0.0 W/m2 OVC
15:45 64.9 °F 42.5 °F 30.33 in Calm     44% 0.00 in 0.0 W/m2 OVC
16:10 64.0 °F 42.8 °F 30.33 in Calm     46% 0.00 in 0.0 W/m2 FEW
16:25 64.0 °F 42.8 °F 30.33 in Calm     46% 0.00 in 0.0 W/m2 FEW
16:35 64.0 °F 42.8 °F 30.33 in Calm     46% 0.00 in 0.0 W/m2 FEW
16:45 64.0 °F 42.8 °F 30.33 in Calm     46% 0.00 in 0.0 W/m2 FEW
16:55 64.0 °F 42.8 °F 30.33 in Calm     46% 0.00 in 0.0 W/m2 FEW
17:00 64.0 °F 42.8 °F 30.33 in Calm     46% 0.00 in 0.0 W/m2 FEW
17:10 60.1 °F 44.8 °F 30.33 in Calm     57% 0.00 in 0.0 W/m2 CLR
17:15 60.1 °F 44.8 °F 30.33 in Calm     57% 0.00 in 0.0 W/m2 CLR
17:25 60.1 °F 44.8 °F 30.33 in Calm     57% 0.00 in 0.0 W/m2 CLR
17:50 60.1 °F 44.8 °F 30.33 in Calm     57% 0.00 in 0.0 W/m2 CLR
18:10 57.9 °F 44.5 °F 30.34 in Calm     61% 0.00 in 0.0 W/m2 BKN
18:15 57.9 °F 44.5 °F 30.34 in Calm     61% 0.00 in 0.0 W/m2 BKN
18:30 57.9 °F 44.5 °F 30.34 in Calm     61% 0.00 in 0.0 W/m2 BKN
18:45 57.9 °F 44.5 °F 30.34 in Calm     61% 0.00 in 0.0 W/m2 BKN
19:20 55.9 °F 44.7 °F 30.35 in Calm     66% 0.00 in 0.0 W/m2 CLR
19:25 55.9 °F 44.7 °F 30.35 in Calm     66% 0.00 in 0.0 W/m2 CLR
19:30 55.9 °F 44.7 °F 30.35 in Calm     66% 0.00 in 0.0 W/m2 CLR
19:55 55.9 °F 44.7 °F 30.35 in Calm     66% 0.00 in 0.0 W/m2 CLR
20:00 55.9 °F 44.7 °F 30.35 in Calm     66% 0.00 in 0.0 W/m2 CLR
20:10 54.0 °F 44.8 °F 30.35 in Calm     71% 0.00 in 0.0 W/m2 CLR
20:15 54.0 °F 44.8 °F 30.35 in Calm     71% 0.00 in 0.0 W/m2 CLR
20:35 54.0 °F 44.8 °F 30.35 in Calm     71% 0.00 in 0.0 W/m2 CLR
20:50 54.0 °F 44.8 °F 30.35 in Calm     71% 0.00 in 0.0 W/m2 CLR
20:55 54.0 °F 44.8 °F 30.35 in Calm     71% 0.00 in 0.0 W/m2 CLR
21:00 54.0 °F 44.8 °F 30.35 in Calm     71% 0.00 in 0.0 W/m2 CLR
21:25 53.1 °F 44.6 °F 30.35 in Calm     73% 0.00 in 0.0 W/m2 CLR
21:55 53.1 °F 44.6 °F 30.35 in Calm     73% 0.00 in 0.0 W/m2 CLR
Lake Mary, FL, USA
Compliments of Weather Underground - 1.25 mb